sensor_id;sensor_type;location;lat;lon;timestamp;temperature;humidity
17587;DHT22;8912;52.336;17.172;2022-08-21T00:02:23;19.70;99.90
17587;DHT22;8912;52.336;17.172;2022-08-21T00:04:53;19.70;99.90
17587;DHT22;8912;52.336;17.172;2022-08-21T00:07:25;19.60;99.90
17587;DHT22;8912;52.336;17.172;2022-08-21T00:09:54;19.60;99.90
17587;DHT22;8912;52.336;17.172;2022-08-21T00:12:23;19.60;99.90
17587;DHT22;8912;52.336;17.172;2022-08-21T00:14:53;19.60;99.90
17587;DHT22;8912;52.336;17.172;2022-08-21T00:17:26;19.50;99.90
17587;DHT22;8912;52.336;17.172;2022-08-21T00:19:55;19.50;99.90
17587;DHT22;8912;52.336;17.172;2022-08-21T00:22:24;19.50;99.90
17587;DHT22;8912;52.336;17.172;2022-08-21T00:24:52;19.50;99.90
17587;DHT22;8912;52.336;17.172;2022-08-21T00:27:21;19.40;99.90
17587;DHT22;8912;52.336;17.172;2022-08-21T00:29:50;19.50;99.90
17587;DHT22;8912;52.336;17.172;2022-08-21T00:32:21;19.50;99.90
17587;DHT22;8912;52.336;17.172;2022-08-21T00:34:53;19.50;99.90
17587;DHT22;8912;52.336;17.172;2022-08-21T00:37:22;19.50;99.90
17587;DHT22;8912;52.336;17.172;2022-08-21T00:39:51;19.50;99.90
17587;DHT22;8912;52.336;17.172;2022-08-21T00:42:20;19.50;99.90
17587;DHT22;8912;52.336;17.172;2022-08-21T00:44:49;19.40;99.90
17587;DHT22;8912;52.336;17.172;2022-08-21T00:47:19;19.30;99.90
17587;DHT22;8912;52.336;17.172;2022-08-21T00:49:48;19.30;99.90
17587;DHT22;8912;52.336;17.172;2022-08-21T00:52:22;19.30;99.90
17587;DHT22;8912;52.336;17.172;2022-08-21T00:54:52;19.30;99.90
17587;DHT22;8912;52.336;17.172;2022-08-21T00:57:28;19.30;99.90
17587;DHT22;8912;52.336;17.172;2022-08-21T01:00:00;19.50;99.90
17587;DHT22;8912;52.336;17.172;2022-08-21T01:02:31;19.20;99.90
17587;DHT22;8912;52.336;17.172;2022-08-21T01:05:00;19.20;99.90
17587;DHT22;8912;52.336;17.172;2022-08-21T01:07:31;19.20;99.90
17587;DHT22;8912;52.336;17.172;2022-08-21T01:10:00;19.20;99.90
17587;DHT22;8912;52.336;17.172;2022-08-21T01:12:29;19.10;99.90
17587;DHT22;8912;52.336;17.172;2022-08-21T01:14:58;19.00;99.90
17587;DHT22;8912;52.336;17.172;2022-08-21T01:17:27;19.00;99.90
17587;DHT22;8912;52.336;17.172;2022-08-21T01:19:58;19.00;99.90
17587;DHT22;8912;52.336;17.172;2022-08-21T01:22:28;18.90;99.90
17587;DHT22;8912;52.336;17.172;2022-08-21T01:24:57;18.90;99.90
17587;DHT22;8912;52.336;17.172;2022-08-21T01:27:26;18.80;99.90
17587;DHT22;8912;52.336;17.172;2022-08-21T01:29:58;18.80;99.90
17587;DHT22;8912;52.336;17.172;2022-08-21T01:32:31;18.80;99.90
17587;DHT22;8912;52.336;17.172;2022-08-21T01:35:01;18.70;99.90
17587;DHT22;8912;52.336;17.172;2022-08-21T01:37:32;18.60;99.90
17587;DHT22;8912;52.336;17.172;2022-08-21T01:40:01;18.50;99.90
17587;DHT22;8912;52.336;17.172;2022-08-21T01:42:30;19.50;99.90
17587;DHT22;8912;52.336;17.172;2022-08-21T01:44:59;18.50;99.90
17587;DHT22;8912;52.336;17.172;2022-08-21T01:47:28;18.30;99.90
17587;DHT22;8912;52.336;17.172;2022-08-21T01:49:57;18.30;99.90
17587;DHT22;8912;52.336;17.172;2022-08-21T01:52:26;18.20;99.90
17587;DHT22;8912;52.336;17.172;2022-08-21T01:54:58;18.20;99.90
17587;DHT22;8912;52.336;17.172;2022-08-21T01:57:27;18.10;99.90
17587;DHT22;8912;52.336;17.172;2022-08-21T01:59:56;18.10;99.90
17587;DHT22;8912;52.336;17.172;2022-08-21T02:02:25;18.10;99.90
17587;DHT22;8912;52.336;17.172;2022-08-21T02:04:54;18.00;99.90
17587;DHT22;8912;52.336;17.172;2022-08-21T02:07:23;18.00;99.90
17587;DHT22;8912;52.336;17.172;2022-08-21T02:09:52;18.00;99.90
17587;DHT22;8912;52.336;17.172;2022-08-21T02:12:24;18.00;99.90
17587;DHT22;8912;52.336;17.172;2022-08-21T02:14:52;17.90;99.90
17587;DHT22;8912;52.336;17.172;2022-08-21T02:17:21;17.90;99.90
17587;DHT22;8912;52.336;17.172;2022-08-21T02:19:50;17.90;99.90
17587;DHT22;8912;52.336;17.172;2022-08-21T02:22:19;18.00;99.90
17587;DHT22;8912;52.336;17.172;2022-08-21T02:24:48;17.90;99.90
17587;DHT22;8912;52.336;17.172;2022-08-21T02:27:24;17.90;99.90
17587;DHT22;8912;52.336;17.172;2022-08-21T02:29:55;17.90;99.90
17587;DHT22;8912;52.336;17.172;2022-08-21T02:32:25;17.90;99.90
17587;DHT22;8912;52.336;17.172;2022-08-21T02:34:54;17.90;99.90
17587;DHT22;8912;52.336;17.172;2022-08-21T02:37:23;17.90;99.90
17587;DHT22;8912;52.336;17.172;2022-08-21T02:39:52;18.00;99.90
17587;DHT22;8912;52.336;17.172;2022-08-21T02:42:23;18.00;99.90
17587;DHT22;8912;52.336;17.172;2022-08-21T02:44:52;18.00;99.90
17587;DHT22;8912;52.336;17.172;2022-08-21T02:47:21;18.00;99.90
17587;DHT22;8912;52.336;17.172;2022-08-21T02:49:52;18.00;99.90
17587;DHT22;8912;52.336;17.172;2022-08-21T02:52:21;18.00;99.90
17587;DHT22;8912;52.336;17.172;2022-08-21T02:54:51;18.00;99.90
17587;DHT22;8912;52.336;17.172;2022-08-21T02:57:20;18.00;99.90
17587;DHT22;8912;52.336;17.172;2022-08-21T02:59:50;18.00;99.90
17587;DHT22;8912;52.336;17.172;2022-08-21T03:02:19;18.00;99.90
17587;DHT22;8912;52.336;17.172;2022-08-21T03:04:53;18.00;99.90
17587;DHT22;8912;52.336;17.172;2022-08-21T03:07:21;18.10;99.90
17587;DHT22;8912;52.336;17.172;2022-08-21T03:09:50;18.00;99.90
17587;DHT22;8912;52.336;17.172;2022-08-21T03:12:22;18.00;99.90
17587;DHT22;8912;52.336;17.172;2022-08-21T03:14:57;18.00;99.90
17587;DHT22;8912;52.336;17.172;2022-08-21T03:17:26;18.00;99.90
17587;DHT22;8912;52.336;17.172;2022-08-21T03:19:57;18.00;99.90
17587;DHT22;8912;52.336;17.172;2022-08-21T03:22:26;18.00;99.90
17587;DHT22;8912;52.336;17.172;2022-08-21T03:24:57;18.00;99.90
17587;DHT22;8912;52.336;17.172;2022-08-21T03:27:27;18.10;99.90
17587;DHT22;8912;52.336;17.172;2022-08-21T03:30:00;18.00;99.90
17587;DHT22;8912;52.336;17.172;2022-08-21T03:32:29;18.00;99.90
17587;DHT22;8912;52.336;17.172;2022-08-21T03:34:59;18.00;99.90
17587;DHT22;8912;52.336;17.172;2022-08-21T03:37:29;18.00;99.90
17587;DHT22;8912;52.336;17.172;2022-08-21T03:39:58;18.00;99.90
17587;DHT22;8912;52.336;17.172;2022-08-21T03:42:27;18.00;99.90
17587;DHT22;8912;52.336;17.172;2022-08-21T03:44:56;18.00;99.90
17587;DHT22;8912;52.336;17.172;2022-08-21T03:47:26;18.00;99.90
17587;DHT22;8912;52.336;17.172;2022-08-21T03:49:55;18.00;99.90
17587;DHT22;8912;52.336;17.172;2022-08-21T03:52:24;18.00;99.90
17587;DHT22;8912;52.336;17.172;2022-08-21T03:54:53;17.90;99.90
17587;DHT22;8912;52.336;17.172;2022-08-21T03:57:22;17.90;99.90
17587;DHT22;8912;52.336;17.172;2022-08-21T03:59:51;17.90;99.90
17587;DHT22;8912;52.336;17.172;2022-08-21T04:02:21;17.90;99.90
17587;DHT22;8912;52.336;17.172;2022-08-21T04:04:51;17.80;99.90
17587;DHT22;8912;52.336;17.172;2022-08-21T04:07:20;17.80;99.90
17587;DHT22;8912;52.336;17.172;2022-08-21T04:09:49;17.80;99.90
17587;DHT22;8912;52.336;17.172;2022-08-21T04:12:18;17.80;99.90
17587;DHT22;8912;52.336;17.172;2022-08-21T04:14:47;17.80;99.90
17587;DHT22;8912;52.336;17.172;2022-08-21T04:17:18;17.80;99.90
17587;DHT22;8912;52.336;17.172;2022-08-21T04:19:47;17.80;99.90
17587;DHT22;8912;52.336;17.172;2022-08-21T04:22:22;17.80;99.90
17587;DHT22;8912;52.336;17.172;2022-08-21T04:24:50;17.90;99.90
17587;DHT22;8912;52.336;17.172;2022-08-21T04:27:19;17.90;99.90
17587;DHT22;8912;52.336;17.172;2022-08-21T04:29:48;17.90;99.90
17587;DHT22;8912;52.336;17.172;2022-08-21T04:32:21;17.90;99.90
17587;DHT22;8912;52.336;17.172;2022-08-21T04:34:51;17.90;99.90
17587;DHT22;8912;52.336;17.172;2022-08-21T04:37:27;17.90;99.90
17587;DHT22;8912;52.336;17.172;2022-08-21T04:39:56;17.90;99.90
17587;DHT22;8912;52.336;17.172;2022-08-21T04:42:26;17.90;99.90
17587;DHT22;8912;52.336;17.172;2022-08-21T04:44:55;17.90;99.90
17587;DHT22;8912;52.336;17.172;2022-08-21T04:47:24;17.90;99.90
17587;DHT22;8912;52.336;17.172;2022-08-21T04:50:14;17.90;99.90
17587;DHT22;8912;52.336;17.172;2022-08-21T04:53:05;17.90;99.90
17587;DHT22;8912;52.336;17.172;2022-08-21T04:55:36;17.90;99.90
17587;DHT22;8912;52.336;17.172;2022-08-21T04:58:06;17.90;99.90
17587;DHT22;8912;52.336;17.172;2022-08-21T05:00:36;17.90;99.90
17587;DHT22;8912;52.336;17.172;2022-08-21T05:03:06;17.90;99.90
17587;DHT22;8912;52.336;17.172;2022-08-21T05:05:36;17.90;99.90
17587;DHT22;8912;52.336;17.172;2022-08-21T05:08:07;17.90;99.90
17587;DHT22;8912;52.336;17.172;2022-08-21T05:10:38;17.90;99.90
17587;DHT22;8912;52.336;17.172;2022-08-21T05:13:07;17.90;99.90
17587;DHT22;8912;52.336;17.172;2022-08-21T05:15:36;17.90;99.90
17587;DHT22;8912;52.336;17.172;2022-08-21T05:18:05;17.90;99.90
17587;DHT22;8912;52.336;17.172;2022-08-21T05:20:35;17.90;99.90
17587;DHT22;8912;52.336;17.172;2022-08-21T05:23:09;17.80;99.90
17587;DHT22;8912;52.336;17.172;2022-08-21T05:25:39;17.90;99.90
17587;DHT22;8912;52.336;17.172;2022-08-21T05:28:09;17.90;99.90
17587;DHT22;8912;52.336;17.172;2022-08-21T05:30:38;17.90;99.90
17587;DHT22;8912;52.336;17.172;2022-08-21T05:33:08;17.90;99.90
17587;DHT22;8912;52.336;17.172;2022-08-21T05:35:37;17.90;99.90
17587;DHT22;8912;52.336;17.172;2022-08-21T05:38:08;17.90;99.90
17587;DHT22;8912;52.336;17.172;2022-08-21T05:40:44;17.90;99.90
17587;DHT22;8912;52.336;17.172;2022-08-21T05:43:14;17.90;99.90
17587;DHT22;8912;52.336;17.172;2022-08-21T05:45:43;17.90;99.90
17587;DHT22;8912;52.336;17.172;2022-08-21T05:48:16;17.90;99.90
17587;DHT22;8912;52.336;17.172;2022-08-21T05:50:46;17.90;99.90
17587;DHT22;8912;52.336;17.172;2022-08-21T05:53:18;17.90;99.90
17587;DHT22;8912;52.336;17.172;2022-08-21T05:55:48;17.90;99.90
17587;DHT22;8912;52.336;17.172;2022-08-21T05:58:19;17.90;99.90
17587;DHT22;8912;52.336;17.172;2022-08-21T06:00:49;17.90;99.90
17587;DHT22;8912;52.336;17.172;2022-08-21T06:03:21;17.90;99.90
17587;DHT22;8912;52.336;17.172;2022-08-21T06:05:50;17.90;99.90
17587;DHT22;8912;52.336;17.172;2022-08-21T06:08:22;17.90;99.90
17587;DHT22;8912;52.336;17.172;2022-08-21T06:10:53;17.90;99.90
17587;DHT22;8912;52.336;17.172;2022-08-21T06:13:23;17.90;99.90
17587;DHT22;8912;52.336;17.172;2022-08-21T06:16:01;17.90;99.90
17587;DHT22;8912;52.336;17.172;2022-08-21T06:18:30;17.90;99.90
17587;DHT22;8912;52.336;17.172;2022-08-21T06:20:59;17.90;99.90
17587;DHT22;8912;52.336;17.172;2022-08-21T06:23:30;17.90;99.90
17587;DHT22;8912;52.336;17.172;2022-08-21T06:26:00;18.00;99.90
17587;DHT22;8912;52.336;17.172;2022-08-21T06:28:29;17.90;99.90
17587;DHT22;8912;52.336;17.172;2022-08-21T06:30:58;17.90;99.90
17587;DHT22;8912;52.336;17.172;2022-08-21T06:33:27;17.90;99.90
17587;DHT22;8912;52.336;17.172;2022-08-21T06:35:59;17.90;99.90
17587;DHT22;8912;52.336;17.172;2022-08-21T06:38:29;18.00;99.90
17587;DHT22;8912;52.336;17.172;2022-08-21T06:40:59;18.00;99.90
17587;DHT22;8912;52.336;17.172;2022-08-21T06:43:30;18.00;99.90
17587;DHT22;8912;52.336;17.172;2022-08-21T06:46:06;18.00;99.90
17587;DHT22;8912;52.336;17.172;2022-08-21T06:48:36;18.00;99.90
17587;DHT22;8912;52.336;17.172;2022-08-21T06:51:05;18.00;99.90
17587;DHT22;8912;52.336;17.172;2022-08-21T06:53:35;18.10;99.90
17587;DHT22;8912;52.336;17.172;2022-08-21T06:56:04;18.10;99.90
17587;DHT22;8912;52.336;17.172;2022-08-21T06:58:34;18.10;99.90
17587;DHT22;8912;52.336;17.172;2022-08-21T07:01:03;18.10;99.90
17587;DHT22;8912;52.336;17.172;2022-08-21T07:03:35;18.10;99.90
17587;DHT22;8912;52.336;17.172;2022-08-21T07:06:05;18.20;99.90
17587;DHT22;8912;52.336;17.172;2022-08-21T07:08:37;18.20;99.90
17587;DHT22;8912;52.336;17.172;2022-08-21T07:11:12;18.20;99.90
17587;DHT22;8912;52.336;17.172;2022-08-21T07:13:43;18.20;99.90
17587;DHT22;8912;52.336;17.172;2022-08-21T07:16:12;18.30;99.90
17587;DHT22;8912;52.336;17.172;2022-08-21T07:18:41;18.20;99.90
17587;DHT22;8912;52.336;17.172;2022-08-21T07:21:10;18.30;99.90
17587;DHT22;8912;52.336;17.172;2022-08-21T07:23:42;18.30;99.90
17587;DHT22;8912;52.336;17.172;2022-08-21T07:26:13;18.30;99.90
17587;DHT22;8912;52.336;17.172;2022-08-21T07:28:42;18.30;99.90
17587;DHT22;8912;52.336;17.172;2022-08-21T07:31:14;18.40;99.90
17587;DHT22;8912;52.336;17.172;2022-08-21T07:33:44;18.40;99.90
17587;DHT22;8912;52.336;17.172;2022-08-21T07:36:13;18.40;99.90
17587;DHT22;8912;52.336;17.172;2022-08-21T07:38:44;18.40;99.90
17587;DHT22;8912;52.336;17.172;2022-08-21T07:41:16;18.50;99.90
17587;DHT22;8912;52.336;17.172;2022-08-21T07:43:46;18.50;99.90
17587;DHT22;8912;52.336;17.172;2022-08-21T07:46:19;18.50;99.90
17587;DHT22;8912;52.336;17.172;2022-08-21T07:48:48;18.60;99.90
17587;DHT22;8912;52.336;17.172;2022-08-21T07:51:23;18.60;99.90
17587;DHT22;8912;52.336;17.172;2022-08-21T07:53:57;18.60;99.90
17587;DHT22;8912;52.336;17.172;2022-08-21T07:56:27;18.60;99.90
17587;DHT22;8912;52.336;17.172;2022-08-21T07:58:55;18.60;99.90
17587;DHT22;8912;52.336;17.172;2022-08-21T08:01:25;18.60;99.90
17587;DHT22;8912;52.336;17.172;2022-08-21T08:03:54;18.60;99.90
17587;DHT22;8912;52.336;17.172;2022-08-21T08:06:23;18.60;99.90
17587;DHT22;8912;52.336;17.172;2022-08-21T08:08:54;18.60;99.90
17587;DHT22;8912;52.336;17.172;2022-08-21T08:11:23;18.60;99.90
17587;DHT22;8912;52.336;17.172;2022-08-21T08:13:52;18.60;99.90
17587;DHT22;8912;52.336;17.172;2022-08-21T08:16:21;18.60;99.90
17587;DHT22;8912;52.336;17.172;2022-08-21T08:18:50;18.60;99.90
17587;DHT22;8912;52.336;17.172;2022-08-21T08:21:19;18.60;99.90
17587;DHT22;8912;52.336;17.172;2022-08-21T08:23:48;18.60;99.90
17587;DHT22;8912;52.336;17.172;2022-08-21T08:26:19;18.60;99.90
17587;DHT22;8912;52.336;17.172;2022-08-21T08:28:48;18.60;99.90
17587;DHT22;8912;52.336;17.172;2022-08-21T08:31:17;18.60;99.90
17587;DHT22;8912;52.336;17.172;2022-08-21T08:33:46;18.60;99.90
17587;DHT22;8912;52.336;17.172;2022-08-21T08:36:16;18.60;99.90
17587;DHT22;8912;52.336;17.172;2022-08-21T08:38:46;18.60;99.90
17587;DHT22;8912;52.336;17.172;2022-08-21T08:41:19;18.60;99.90
17587;DHT22;8912;52.336;17.172;2022-08-21T08:44:00;18.60;99.90
17587;DHT22;8912;52.336;17.172;2022-08-21T08:46:35;18.60;99.90
17587;DHT22;8912;52.336;17.172;2022-08-21T08:49:10;18.60;99.90
17587;DHT22;8912;52.336;17.172;2022-08-21T08:51:46;18.60;99.90
17587;DHT22;8912;52.336;17.172;2022-08-21T08:54:24;18.60;99.90
17587;DHT22;8912;52.336;17.172;2022-08-21T08:57:02;18.70;99.90
17587;DHT22;8912;52.336;17.172;2022-08-21T08:59:38;18.70;99.90
17587;DHT22;8912;52.336;17.172;2022-08-21T09:02:11;18.70;99.90
17587;DHT22;8912;52.336;17.172;2022-08-21T09:04:42;18.70;99.90
17587;DHT22;8912;52.336;17.172;2022-08-21T09:07:18;18.60;99.90
17587;DHT22;8912;52.336;17.172;2022-08-21T09:10:04;18.60;99.90
17587;DHT22;8912;52.336;17.172;2022-08-21T09:12:45;18.60;99.90
17587;DHT22;8912;52.336;17.172;2022-08-21T09:15:23;18.70;99.90
17587;DHT22;8912;52.336;17.172;2022-08-21T09:18:10;18.70;99.90
17587;DHT22;8912;52.336;17.172;2022-08-21T09:20:51;18.70;99.90
17587;DHT22;8912;52.336;17.172;2022-08-21T09:23:31;18.70;99.90
17587;DHT22;8912;52.336;17.172;2022-08-21T09:26:06;18.70;99.90
17587;DHT22;8912;52.336;17.172;2022-08-21T09:28:37;18.70;99.90
17587;DHT22;8912;52.336;17.172;2022-08-21T09:31:19;18.60;99.90
17587;DHT22;8912;52.336;17.172;2022-08-21T09:33:49;18.50;99.90
17587;DHT22;8912;52.336;17.172;2022-08-21T09:36:24;18.60;99.90
17587;DHT22;8912;52.336;17.172;2022-08-21T09:38:54;18.60;99.90
17587;DHT22;8912;52.336;17.172;2022-08-21T09:41:28;18.60;99.90
17587;DHT22;8912;52.336;17.172;2022-08-21T09:43:58;18.50;99.90
17587;DHT22;8912;52.336;17.172;2022-08-21T09:46:27;18.50;99.90
17587;DHT22;8912;52.336;17.172;2022-08-21T09:48:59;18.60;99.90
17587;DHT22;8912;52.336;17.172;2022-08-21T09:51:30;18.60;99.90
17587;DHT22;8912;52.336;17.172;2022-08-21T09:54:12;18.60;99.90
17587;DHT22;8912;52.336;17.172;2022-08-21T09:56:53;18.60;99.90
17587;DHT22;8912;52.336;17.172;2022-08-21T09:59:42;18.60;99.90
17587;DHT22;8912;52.336;17.172;2022-08-21T10:02:24;18.50;99.90
17587;DHT22;8912;52.336;17.172;2022-08-21T10:04:56;18.50;99.90
17587;DHT22;8912;52.336;17.172;2022-08-21T10:07:28;18.50;99.90
17587;DHT22;8912;52.336;17.172;2022-08-21T10:10:03;18.40;99.90
17587;DHT22;8912;52.336;17.172;2022-08-21T10:12:41;18.40;99.90
17587;DHT22;8912;52.336;17.172;2022-08-21T10:15:20;18.30;99.90
17587;DHT22;8912;52.336;17.172;2022-08-21T10:17:57;18.40;99.90
17587;DHT22;8912;52.336;17.172;2022-08-21T10:20:37;18.50;99.90
17587;DHT22;8912;52.336;17.172;2022-08-21T10:23:24;18.50;99.90
17587;DHT22;8912;52.336;17.172;2022-08-21T10:26:05;18.60;99.90
17587;DHT22;8912;52.336;17.172;2022-08-21T10:28:48;18.60;99.90
17587;DHT22;8912;52.336;17.172;2022-08-21T10:31:31;18.60;99.90
17587;DHT22;8912;52.336;17.172;2022-08-21T10:34:11;18.60;99.90
17587;DHT22;8912;52.336;17.172;2022-08-21T10:36:50;18.60;99.90
17587;DHT22;8912;52.336;17.172;2022-08-21T10:39:25;18.60;99.90
17587;DHT22;8912;52.336;17.172;2022-08-21T10:42:21;18.60;99.90
17587;DHT22;8912;52.336;17.172;2022-08-21T10:45:02;18.60;99.90
17587;DHT22;8912;52.336;17.172;2022-08-21T10:47:41;18.70;99.90
17587;DHT22;8912;52.336;17.172;2022-08-21T10:50:19;18.70;99.90
17587;DHT22;8912;52.336;17.172;2022-08-21T10:53:05;18.80;99.90
17587;DHT22;8912;52.336;17.172;2022-08-21T10:55:42;18.80;99.90
17587;DHT22;8912;52.336;17.172;2022-08-21T10:58:16;18.80;99.90
17587;DHT22;8912;52.336;17.172;2022-08-21T11:00:49;18.90;99.90
17587;DHT22;8912;52.336;17.172;2022-08-21T11:03:29;19.00;99.90
17587;DHT22;8912;52.336;17.172;2022-08-21T11:06:04;19.00;99.90
17587;DHT22;8912;52.336;17.172;2022-08-21T11:08:39;19.00;99.90
17587;DHT22;8912;52.336;17.172;2022-08-21T11:11:13;19.00;99.90
17587;DHT22;8912;52.336;17.172;2022-08-21T11:13:52;19.00;99.90
17587;DHT22;8912;52.336;17.172;2022-08-21T11:16:28;19.10;99.90
17587;DHT22;8912;52.336;17.172;2022-08-21T11:19:08;19.10;99.90
17587;DHT22;8912;52.336;17.172;2022-08-21T11:21:43;19.10;99.90
17587;DHT22;8912;52.336;17.172;2022-08-21T11:24:24;19.10;99.90
17587;DHT22;8912;52.336;17.172;2022-08-21T11:27:01;19.10;99.90
17587;DHT22;8912;52.336;17.172;2022-08-21T11:29:35;19.10;99.90
17587;DHT22;8912;52.336;17.172;2022-08-21T11:32:27;19.10;99.90
17587;DHT22;8912;52.336;17.172;2022-08-21T11:35:07;19.20;99.90
17587;DHT22;8912;52.336;17.172;2022-08-21T11:37:47;19.20;99.90
17587;DHT22;8912;52.336;17.172;2022-08-21T11:40:34;19.20;99.90
17587;DHT22;8912;52.336;17.172;2022-08-21T11:43:12;19.20;99.90
17587;DHT22;8912;52.336;17.172;2022-08-21T11:45:47;19.30;99.90
17587;DHT22;8912;52.336;17.172;2022-08-21T11:48:30;19.30;99.90
17587;DHT22;8912;52.336;17.172;2022-08-21T11:51:10;19.30;99.90
17587;DHT22;8912;52.336;17.172;2022-08-21T11:53:44;19.20;99.90
17587;DHT22;8912;52.336;17.172;2022-08-21T11:56:25;19.30;99.90
17587;DHT22;8912;52.336;17.172;2022-08-21T11:58:58;19.30;99.90
17587;DHT22;8912;52.336;17.172;2022-08-21T12:01:31;19.30;99.90
17587;DHT22;8912;52.336;17.172;2022-08-21T12:04:03;19.30;99.90
17587;DHT22;8912;52.336;17.172;2022-08-21T12:06:35;19.40;99.90
17587;DHT22;8912;52.336;17.172;2022-08-21T12:09:06;19.50;99.90
17587;DHT22;8912;52.336;17.172;2022-08-21T12:11:46;19.40;99.90
17587;DHT22;8912;52.336;17.172;2022-08-21T12:14:18;19.50;99.90
17587;DHT22;8912;52.336;17.172;2022-08-21T12:16:48;19.50;99.90
17587;DHT22;8912;52.336;17.172;2022-08-21T12:19:29;19.40;99.90
17587;DHT22;8912;52.336;17.172;2022-08-21T12:22:10;19.40;99.90
17587;DHT22;8912;52.336;17.172;2022-08-21T12:24:42;19.40;99.90
17587;DHT22;8912;52.336;17.172;2022-08-21T12:27:30;19.40;99.90
17587;DHT22;8912;52.336;17.172;2022-08-21T12:30:01;19.40;99.90
17587;DHT22;8912;52.336;17.172;2022-08-21T12:32:43;19.40;99.90
17587;DHT22;8912;52.336;17.172;2022-08-21T12:35:15;19.50;99.90
17587;DHT22;8912;52.336;17.172;2022-08-21T12:38:01;19.60;99.90
17587;DHT22;8912;52.336;17.172;2022-08-21T12:40:40;19.60;99.90
17587;DHT22;8912;52.336;17.172;2022-08-21T12:43:14;19.70;99.90
17587;DHT22;8912;52.336;17.172;2022-08-21T12:45:46;19.70;99.90
17587;DHT22;8912;52.336;17.172;2022-08-21T12:48:20;19.70;99.90
17587;DHT22;8912;52.336;17.172;2022-08-21T12:50:53;19.60;99.90
17587;DHT22;8912;52.336;17.172;2022-08-21T12:53:32;19.50;99.90
17587;DHT22;8912;52.336;17.172;2022-08-21T12:56:04;19.50;99.90
17587;DHT22;8912;52.336;17.172;2022-08-21T12:58:40;19.50;99.90
17587;DHT22;8912;52.336;17.172;2022-08-21T13:01:17;19.40;99.90
17587;DHT22;8912;52.336;17.172;2022-08-21T13:03:48;19.40;99.90
17587;DHT22;8912;52.336;17.172;2022-08-21T13:06:36;19.40;99.90
17587;DHT22;8912;52.336;17.172;2022-08-21T13:09:10;19.30;99.90
17587;DHT22;8912;52.336;17.172;2022-08-21T13:11:40;19.20;99.90
17587;DHT22;8912;52.336;17.172;2022-08-21T13:14:14;19.20;99.90
17587;DHT22;8912;52.336;17.172;2022-08-21T13:16:47;19.10;99.90
17587;DHT22;8912;52.336;17.172;2022-08-21T13:19:18;19.10;99.90
17587;DHT22;8912;52.336;17.172;2022-08-21T13:21:50;19.10;99.90
17587;DHT22;8912;52.336;17.172;2022-08-21T13:24:24;19.00;99.90
17587;DHT22;8912;52.336;17.172;2022-08-21T13:27:23;19.00;99.90
17587;DHT22;8912;52.336;17.172;2022-08-21T13:30:08;19.00;99.90
17587;DHT22;8912;52.336;17.172;2022-08-21T13:32:40;18.90;99.90
17587;DHT22;8912;52.336;17.172;2022-08-21T13:35:13;18.90;99.90
17587;DHT22;8912;52.336;17.172;2022-08-21T13:37:43;18.90;99.90
17587;DHT22;8912;52.336;17.172;2022-08-21T13:40:17;18.90;99.90
17587;DHT22;8912;52.336;17.172;2022-08-21T13:42:47;18.80;99.90
17587;DHT22;8912;52.336;17.172;2022-08-21T13:45:22;18.80;99.90
17587;DHT22;8912;52.336;17.172;2022-08-21T13:47:51;18.80;99.90
17587;DHT22;8912;52.336;17.172;2022-08-21T13:50:24;18.80;99.90
17587;DHT22;8912;52.336;17.172;2022-08-21T13:53:00;18.80;99.90
17587;DHT22;8912;52.336;17.172;2022-08-21T13:55:40;18.80;99.90
17587;DHT22;8912;52.336;17.172;2022-08-21T13:58:10;18.80;99.90
17587;DHT22;8912;52.336;17.172;2022-08-21T14:00:46;18.70;99.90
17587;DHT22;8912;52.336;17.172;2022-08-21T14:03:27;18.80;99.90
17587;DHT22;8912;52.336;17.172;2022-08-21T14:05:58;18.80;99.90
17587;DHT22;8912;52.336;17.172;2022-08-21T14:08:31;18.80;99.90
17587;DHT22;8912;52.336;17.172;2022-08-21T14:11:05;18.80;99.90
17587;DHT22;8912;52.336;17.172;2022-08-21T14:13:38;18.80;99.90
17587;DHT22;8912;52.336;17.172;2022-08-21T14:16:13;18.80;99.90
17587;DHT22;8912;52.336;17.172;2022-08-21T14:18:45;18.70;99.90
17587;DHT22;8912;52.336;17.172;2022-08-21T14:21:25;18.70;99.90
17587;DHT22;8912;52.336;17.172;2022-08-21T14:24:04;18.60;99.90
17587;DHT22;8912;52.336;17.172;2022-08-21T14:26:44;18.50;99.90
17587;DHT22;8912;52.336;17.172;2022-08-21T14:29:15;18.50;99.90
17587;DHT22;8912;52.336;17.172;2022-08-21T14:31:50;18.50;99.90
17587;DHT22;8912;52.336;17.172;2022-08-21T14:34:19;18.40;99.90
17587;DHT22;8912;52.336;17.172;2022-08-21T14:36:50;18.40;99.90
17587;DHT22;8912;52.336;17.172;2022-08-21T14:39:19;18.40;99.90
17587;DHT22;8912;52.336;17.172;2022-08-21T14:41:51;18.30;99.90
17587;DHT22;8912;52.336;17.172;2022-08-21T14:44:21;18.30;99.90
17587;DHT22;8912;52.336;17.172;2022-08-21T14:46:50;18.30;99.90
17587;DHT22;8912;52.336;17.172;2022-08-21T14:49:23;18.20;99.90
17587;DHT22;8912;52.336;17.172;2022-08-21T14:51:54;18.20;99.90
17587;DHT22;8912;52.336;17.172;2022-08-21T14:54:26;18.20;99.90
17587;DHT22;8912;52.336;17.172;2022-08-21T14:57:02;18.10;99.90
17587;DHT22;8912;52.336;17.172;2022-08-21T14:59:32;18.10;99.90
17587;DHT22;8912;52.336;17.172;2022-08-21T15:02:01;18.00;99.90
17587;DHT22;8912;52.336;17.172;2022-08-21T15:04:32;18.00;99.90
17587;DHT22;8912;52.336;17.172;2022-08-21T15:07:01;17.90;99.90
17587;DHT22;8912;52.336;17.172;2022-08-21T15:09:30;17.90;99.90
17587;DHT22;8912;52.336;17.172;2022-08-21T15:12:02;17.80;99.90
17587;DHT22;8912;52.336;17.172;2022-08-21T15:14:34;17.80;99.90
17587;DHT22;8912;52.336;17.172;2022-08-21T15:17:05;17.80;99.90
17587;DHT22;8912;52.336;17.172;2022-08-21T15:19:34;17.80;99.90
17587;DHT22;8912;52.336;17.172;2022-08-21T15:22:04;17.80;99.90
17587;DHT22;8912;52.336;17.172;2022-08-21T15:24:45;17.80;99.90
17587;DHT22;8912;52.336;17.172;2022-08-21T15:27:16;17.80;99.90
17587;DHT22;8912;52.336;17.172;2022-08-21T15:29:47;17.70;99.90
17587;DHT22;8912;52.336;17.172;2022-08-21T15:32:18;17.70;99.90
17587;DHT22;8912;52.336;17.172;2022-08-21T15:34:49;17.70;99.90
17587;DHT22;8912;52.336;17.172;2022-08-21T15:37:18;17.60;99.90
17587;DHT22;8912;52.336;17.172;2022-08-21T15:39:48;17.50;99.90
17587;DHT22;8912;52.336;17.172;2022-08-21T15:42:22;17.40;99.90
17587;DHT22;8912;52.336;17.172;2022-08-21T15:44:54;17.30;99.90
17587;DHT22;8912;52.336;17.172;2022-08-21T15:47:29;17.20;99.90
17587;DHT22;8912;52.336;17.172;2022-08-21T15:49:58;17.20;99.90
17587;DHT22;8912;52.336;17.172;2022-08-21T15:52:27;17.10;99.90
17587;DHT22;8912;52.336;17.172;2022-08-21T15:54:55;17.10;99.90
17587;DHT22;8912;52.336;17.172;2022-08-21T15:57:27;17.00;99.90
17587;DHT22;8912;52.336;17.172;2022-08-21T15:59:57;17.00;99.90
17587;DHT22;8912;52.336;17.172;2022-08-21T16:02:39;16.90;99.90
17587;DHT22;8912;52.336;17.172;2022-08-21T16:05:09;16.90;99.90